createdAt,value
2018-08-27T01:42:28.318Z,16.20
2018-08-27T01:44:56.662Z,16.40
2018-08-27T01:47:25.050Z,16.40
2018-08-27T01:49:53.321Z,16.30
2018-08-27T01:52:21.573Z,16.30
2018-08-27T01:54:49.889Z,16.30
2018-08-27T01:57:18.163Z,16.30
2018-08-27T01:59:46.389Z,16.30
2018-08-27T02:02:14.625Z,16.30
2018-08-27T02:04:42.849Z,16.40
2018-08-27T02:07:11.129Z,16.40
2018-08-27T02:09:39.386Z,16.50
2018-08-27T02:12:07.613Z,16.50
2018-08-27T02:14:35.855Z,16.50
2018-08-27T02:17:04.159Z,16.50
2018-08-27T02:19:32.415Z,16.60
2018-08-27T02:22:00.645Z,16.70
2018-08-27T02:24:28.865Z,16.60
2018-08-27T02:26:57.165Z,16.70
2018-08-27T02:29:25.417Z,16.80
2018-08-27T02:31:53.685Z,16.80
2018-08-27T02:34:21.913Z,16.80
2018-08-27T02:36:50.267Z,16.90
2018-08-27T02:39:18.613Z,16.90
2018-08-27T02:44:21.445Z,17.00
2018-08-27T02:46:49.711Z,17.00
2018-08-27T02:49:17.915Z,17.00
2018-08-27T02:51:46.212Z,16.80
2018-08-27T02:54:14.425Z,17.10
2018-08-27T02:56:42.645Z,17.00
2018-08-27T02:59:11.061Z,17.10
2018-08-27T03:01:39.282Z,17.10
2018-08-27T03:04:07.759Z,17.20
2018-08-27T03:06:36.033Z,17.20
2018-08-27T03:09:05.701Z,17.20
2018-08-27T03:11:34.028Z,17.20
2018-08-27T03:14:02.333Z,17.20
2018-08-27T03:16:30.645Z,17.20
2018-08-27T03:18:58.857Z,17.30
2018-08-27T03:21:27.218Z,17.40
2018-08-27T03:23:55.470Z,17.40
2018-08-27T03:26:23.696Z,17.40
2018-08-27T03:28:52.047Z,17.50
2018-08-27T03:31:20.281Z,17.40
2018-08-27T03:33:48.556Z,17.50
2018-08-27T03:36:16.855Z,17.50
2018-08-27T03:38:45.095Z,17.60
2018-08-27T03:41:13.377Z,17.60
2018-08-27T03:43:41.601Z,17.60
2018-08-27T03:46:09.901Z,17.60
2018-08-27T03:48:38.146Z,17.70
2018-08-27T03:58:30.449Z,17.70
2018-08-27T04:00:58.734Z,17.70
2018-08-27T04:03:26.969Z,17.60
2018-08-27T04:05:55.193Z,17.60
2018-08-27T04:08:23.499Z,17.60
2018-08-27T04:10:51.869Z,17.70
2018-08-27T04:13:20.163Z,17.80
2018-08-27T04:15:48.380Z,17.70
2018-08-27T04:18:16.593Z,17.80
2018-08-27T04:20:44.873Z,17.80
2018-08-27T04:47:53.243Z,18.20
2018-08-27T04:50:21.471Z,18.10
2018-08-27T05:00:19.637Z,18.30
2018-08-27T05:12:39.809Z,18.40
2018-08-27T05:15:08.037Z,18.40
2018-08-27T05:17:36.298Z,18.30
2018-08-27T05:20:04.498Z,18.30
2018-08-27T05:22:32.742Z,18.40
2018-08-27T05:25:01.021Z,18.40
2018-08-27T05:27:29.389Z,18.40
2018-08-27T05:29:57.581Z,18.40
2018-08-27T05:32:25.811Z,18.50
2018-08-27T05:34:54.062Z,18.40
2018-08-27T05:39:50.399Z,18.50
2018-08-27T05:42:18.611Z,18.50
2018-08-27T05:44:46.821Z,18.60
2018-08-27T05:47:15.039Z,18.50
2018-08-27T05:49:43.290Z,18.60
2018-08-27T05:52:11.550Z,18.50
2018-08-27T05:54:39.899Z,18.50
2018-08-27T05:57:08.196Z,18.60
2018-08-27T05:59:36.477Z,18.60
2018-08-27T06:02:04.794Z,18.70
2018-08-27T06:04:32.994Z,18.70
2018-08-27T06:07:01.221Z,18.80
2018-08-27T06:09:29.471Z,18.70
2018-08-27T06:11:57.690Z,18.70
2018-08-27T06:14:26.002Z,18.80
2018-08-27T06:16:54.303Z,18.80
2018-08-27T06:19:22.587Z,18.70
2018-08-27T06:21:50.937Z,18.70
2018-08-27T06:24:19.117Z,18.70
2018-08-27T06:26:47.359Z,18.70
2018-08-27T06:29:15.717Z,18.80
2018-08-27T06:31:44.009Z,18.80
2018-08-27T06:34:12.198Z,18.80
2018-08-27T06:36:40.453Z,18.90
2018-08-27T06:39:09.883Z,18.90
2018-08-27T06:41:38.097Z,19.00
2018-08-27T06:44:06.838Z,19.00
2018-08-27T06:46:35.174Z,19.00
2018-08-27T06:51:31.729Z,19.20
2018-08-27T06:54:00.046Z,19.40
2018-08-27T06:56:29.621Z,19.50
2018-08-27T06:58:58.422Z,19.50
2018-08-27T07:01:27.160Z,19.40
2018-08-27T07:03:55.387Z,19.40
2018-08-27T07:06:23.613Z,19.40
2018-08-27T07:08:51.974Z,19.40
2018-08-27T07:11:20.197Z,19.50
2018-08-27T07:13:48.473Z,19.50
2018-08-27T07:16:16.786Z,19.60
2018-08-27T07:18:45.129Z,19.60
2018-08-27T07:21:13.410Z,19.90
2018-08-27T07:23:41.641Z,20.00
2018-08-27T07:26:09.869Z,20.20
2018-08-27T07:28:38.081Z,20.20
2018-08-27T07:31:06.317Z,20.20
2018-08-27T07:33:34.564Z,20.30
2018-08-27T07:36:02.839Z,20.30
2018-08-27T07:38:31.098Z,20.40
2018-08-27T07:40:59.353Z,20.50
2018-08-27T07:43:27.679Z,20.50
2018-08-27T07:45:55.861Z,20.50
2018-08-27T07:48:24.262Z,20.60
2018-08-27T07:50:52.511Z,20.60
2018-08-27T07:53:20.734Z,20.50
2018-08-27T07:55:48.986Z,20.50
2018-08-27T07:58:17.293Z,20.50
2018-08-27T08:00:45.529Z,20.20
2018-08-27T08:03:13.762Z,20.20
2018-08-27T08:05:42.038Z,20.00
2018-08-27T08:08:10.313Z,19.80
2018-08-27T08:10:38.516Z,19.70
2018-08-27T08:13:06.718Z,19.50
2018-08-27T08:15:35.017Z,19.50
2018-08-27T08:18:03.256Z,19.60
2018-08-27T08:20:31.501Z,19.60
2018-08-27T08:22:59.842Z,19.80
2018-08-27T08:25:28.913Z,19.90
2018-08-27T08:27:57.181Z,19.80
2018-08-27T08:30:25.391Z,19.90
2018-08-27T08:32:53.777Z,20.10
2018-08-27T08:35:21.998Z,20.20
2018-08-27T08:37:50.221Z,20.10
2018-08-27T08:40:18.486Z,20.20
2018-08-27T08:42:46.724Z,20.40
2018-08-27T08:45:14.990Z,20.40
2018-08-27T08:47:43.281Z,20.40
2018-08-27T08:50:11.532Z,20.40
2018-08-27T08:52:39.797Z,20.30
2018-08-27T08:55:08.058Z,20.10
2018-08-27T08:57:36.276Z,20.10
2018-08-27T09:00:04.562Z,20.00
2018-08-27T09:02:32.854Z,20.10
2018-08-27T09:05:01.096Z,20.10
2018-08-27T09:09:57.366Z,20.00
2018-08-27T09:12:26.436Z,20.20
2018-08-27T09:14:54.654Z,20.10
2018-08-27T09:17:22.912Z,20.20
2018-08-27T09:19:51.718Z,20.40
2018-08-27T09:22:19.934Z,20.70
2018-08-27T09:24:48.161Z,20.90
2018-08-27T09:27:16.455Z,20.90
2018-08-27T09:29:44.754Z,20.70
2018-08-27T09:32:13.010Z,20.30
2018-08-27T09:34:41.332Z,20.20
2018-08-27T09:37:09.581Z,20.10
2018-08-27T09:39:37.814Z,20.10
2018-08-27T09:42:06.050Z,20.50
2018-08-27T09:44:34.610Z,20.90
2018-08-27T09:54:26.894Z,20.60
2018-08-27T09:56:55.125Z,20.70
2018-08-27T09:59:23.854Z,20.80
2018-08-27T10:04:25.461Z,21.10
2018-08-27T10:06:53.725Z,21.00
2018-08-27T10:09:22.049Z,20.70
2018-08-27T10:11:50.317Z,20.60
2018-08-27T10:14:19.073Z,20.50
2018-08-27T10:16:47.430Z,20.70
2018-08-27T10:19:15.729Z,20.80
2018-08-27T10:21:43.994Z,20.60
2018-08-27T10:24:12.221Z,20.50
2018-08-27T10:26:40.439Z,20.40
2018-08-27T10:29:08.663Z,20.20
2018-08-27T10:31:37.006Z,20.20
2018-08-27T10:34:05.238Z,20.10
2018-08-27T10:36:33.502Z,20.00
2018-08-27T10:39:01.770Z,19.90
2018-08-27T10:41:30.016Z,20.00
2018-08-27T10:43:58.245Z,20.00
2018-08-27T10:46:26.454Z,19.80
2018-08-27T10:48:54.673Z,19.60
2018-08-27T10:51:22.919Z,19.50
2018-08-27T10:53:51.161Z,19.50
2018-08-27T10:56:19.430Z,19.20
2018-08-27T10:58:47.707Z,19.10
2018-08-27T11:01:16.562Z,19.20
2018-08-27T11:03:44.846Z,19.40
2018-08-27T11:06:13.384Z,19.70
2018-08-27T11:08:41.639Z,19.90
2018-08-27T11:11:09.968Z,19.80
2018-08-27T11:13:38.302Z,19.90
2018-08-27T11:16:06.945Z,19.80
2018-08-27T11:18:35.040Z,19.50
2018-08-27T11:21:03.307Z,19.50
2018-08-27T11:23:31.539Z,19.40
2018-08-27T11:25:59.809Z,19.50
2018-08-27T11:28:28.021Z,19.40
2018-08-27T11:30:56.245Z,19.30
2018-08-27T11:33:26.395Z,19.10
2018-08-27T11:35:54.727Z,19.00
2018-08-27T11:38:28.641Z,19.20
2018-08-27T11:40:56.943Z,19.40
2018-08-27T11:43:25.932Z,19.60
2018-08-27T11:45:54.385Z,19.60
2018-08-27T11:48:23.752Z,19.70
2018-08-27T11:50:52.806Z,19.90
2018-08-27T11:53:24.349Z,19.90
2018-08-27T11:55:52.863Z,19.40
2018-08-27T11:58:21.280Z,19.50
2018-08-27T12:00:57.705Z,19.50
2018-08-27T12:03:25.998Z,19.40
2018-08-27T12:05:54.335Z,19.40
2018-08-27T12:08:22.581Z,19.40
2018-08-27T12:10:50.853Z,19.40
2018-08-27T12:13:19.213Z,19.40
2018-08-27T12:15:47.442Z,19.50
2018-08-27T12:18:15.729Z,19.40
2018-08-27T12:20:43.957Z,19.30
2018-08-27T12:25:40.158Z,19.10
2018-08-27T12:57:44.755Z,19.30
2018-08-27T13:39:48.241Z,19.50
2018-08-27T13:42:16.462Z,19.50
2018-08-27T14:09:25.257Z,19.90
2018-08-27T14:11:53.407Z,19.90
2018-08-27T14:14:22.527Z,19.80
2018-08-27T14:16:50.973Z,19.50
2018-08-27T14:19:19.315Z,19.60
2018-08-27T14:21:47.558Z,19.60
2018-08-27T14:24:15.777Z,19.60
2018-08-27T14:26:44.066Z,19.60
2018-08-27T14:29:12.286Z,20.10
2018-08-27T14:31:40.753Z,19.70
2018-08-27T14:36:37.013Z,19.70
2018-08-27T14:39:07.995Z,19.80
2018-08-27T14:41:36.165Z,19.80
2018-08-27T14:44:04.406Z,19.90
2018-08-27T14:46:32.659Z,19.80
2018-08-27T14:51:29.016Z,19.90
2018-08-27T14:53:57.273Z,20.00
2018-08-27T14:56:25.546Z,19.90
2018-08-27T14:58:53.751Z,19.70
2018-08-27T15:01:22.401Z,19.80
2018-08-27T15:03:50.627Z,19.80
2018-08-27T15:06:18.909Z,19.80
2018-08-27T15:08:47.121Z,20.00
2018-08-27T15:11:15.466Z,19.90
2018-08-27T15:23:36.018Z,19.70
2018-08-27T15:26:04.324Z,19.60
2018-08-27T15:28:32.650Z,19.70
2018-08-27T15:31:25.782Z,19.80
2018-08-27T15:33:54.475Z,19.80
2018-08-27T15:36:22.775Z,19.60
2018-08-27T15:38:51.249Z,19.80
2018-08-27T15:51:16.996Z,19.80
2018-08-27T15:53:45.277Z,19.90
2018-08-27T15:56:13.469Z,20.00
2018-08-27T15:58:41.733Z,20.20
2018-08-27T16:01:12.598Z,20.00
2018-08-27T16:03:41.741Z,19.70
2018-08-27T16:06:10.935Z,19.70
2018-08-27T16:08:39.167Z,19.70
2018-08-27T16:11:07.418Z,19.80
2018-08-27T16:13:36.306Z,19.80
2018-08-27T16:16:04.687Z,19.80
2018-08-27T16:18:32.977Z,19.70
2018-08-27T16:23:29.334Z,19.40
2018-08-27T16:25:57.737Z,19.40
2018-08-27T16:28:25.973Z,19.50
2018-08-27T16:30:54.265Z,19.50
2018-08-27T16:33:22.500Z,19.20
2018-08-27T16:35:51.346Z,19.40
2018-08-27T16:38:19.630Z,19.40
2018-08-27T16:40:47.977Z,19.40
2018-08-27T16:43:16.245Z,19.50
2018-08-27T16:45:44.505Z,19.50
2018-08-27T16:48:12.754Z,19.50
2018-08-27T16:50:41.003Z,19.50
2018-08-27T16:53:09.210Z,19.40
2018-08-27T16:55:37.486Z,19.40
2018-08-27T16:58:05.733Z,19.30
2018-08-27T17:00:34.254Z,19.20
2018-08-27T17:03:02.506Z,19.00
2018-08-27T17:05:30.763Z,18.90
2018-08-27T17:07:59.076Z,19.00
2018-08-27T17:10:27.428Z,19.00
2018-08-27T17:12:55.618Z,19.00
2018-08-27T17:15:23.884Z,19.00
2018-08-27T17:17:52.255Z,19.00
2018-08-27T17:22:48.627Z,19.00
2018-08-27T17:25:16.946Z,18.90
2018-08-27T17:27:45.152Z,18.80
2018-08-27T18:26:58.553Z,18.80
2018-08-27T18:29:26.843Z,18.90
2018-08-27T18:31:55.394Z,18.90
2018-08-27T18:34:23.700Z,18.90
2018-08-27T18:36:51.943Z,18.90
2018-08-27T18:39:20.175Z,18.90
2018-08-27T18:41:48.406Z,18.90
2018-08-27T18:44:16.776Z,18.90
2018-08-27T18:46:44.976Z,18.80
2018-08-27T18:49:13.320Z,18.90
2018-08-27T18:51:41.621Z,18.80
2018-08-27T18:54:09.874Z,18.90
2018-08-27T18:56:38.106Z,18.90
2018-08-27T18:59:06.356Z,19.00
2018-08-27T19:01:41.440Z,19.00
2018-08-27T19:04:09.679Z,19.10
2018-08-27T19:06:37.929Z,19.00
2018-08-27T19:09:07.137Z,18.90
2018-08-27T19:11:35.646Z,18.90
2018-08-27T19:14:04.375Z,18.90
2018-08-27T19:16:32.581Z,19.00
2018-08-27T19:19:00.858Z,18.90
2018-08-27T19:21:29.151Z,19.10
2018-08-27T19:23:57.418Z,18.90
2018-08-27T19:26:26.273Z,18.90
2018-08-27T19:28:54.534Z,18.90
2018-08-27T19:31:22.735Z,18.90
2018-08-27T19:33:51.018Z,18.80
2018-08-27T19:36:19.598Z,18.90
2018-08-27T19:38:47.750Z,19.00
2018-08-27T19:41:15.995Z,19.00
2018-08-27T19:43:44.261Z,19.00
2018-08-27T19:46:12.679Z,19.00
2018-08-27T19:48:40.849Z,19.00
2018-08-27T19:51:09.073Z,19.00
2018-08-27T19:53:37.347Z,18.90
2018-08-27T19:56:05.610Z,18.90
2018-08-27T19:58:33.964Z,18.80
2018-08-27T20:01:02.299Z,18.80
2018-08-27T20:03:30.562Z,18.70
2018-08-27T20:05:58.850Z,18.80
2018-08-27T20:08:27.105Z,18.70
2018-08-27T20:10:55.385Z,18.70
2018-08-27T20:13:23.617Z,18.80
2018-08-27T20:15:51.880Z,18.90
2018-08-27T20:18:20.161Z,18.80
2018-08-27T20:20:48.369Z,18.90
2018-08-27T20:23:16.816Z,18.90
2018-08-27T20:25:45.250Z,18.80
2018-08-27T20:28:13.410Z,18.90
2018-08-27T20:30:41.745Z,18.80
2018-08-27T20:33:10.059Z,18.90
2018-08-27T20:50:27.569Z,20.50
2018-08-27T20:57:51.861Z,20.60
2018-08-27T21:02:48.217Z,20.40
2018-08-27T21:07:44.429Z,20.40
2018-08-27T21:20:14.728Z,20.10
2018-08-27T21:22:43.040Z,20.30
2018-08-27T21:25:12.173Z,20.40
2018-08-27T21:27:40.689Z,20.70
2018-08-27T21:30:11.817Z,20.40
2018-08-27T21:32:40.146Z,20.30
2018-08-27T21:35:08.406Z,20.20
2018-08-27T21:40:04.749Z,20.40
2018-08-27T21:42:32.999Z,20.40
2018-08-27T21:57:21.540Z,20.70
2018-08-27T22:02:23.381Z,20.60
2018-08-27T22:04:51.625Z,20.60
2018-08-27T22:07:19.861Z,20.70
2018-08-27T22:09:48.109Z,20.60
2018-08-27T22:17:12.353Z,20.50
2018-08-27T22:22:08.963Z,20.60
2018-08-27T22:24:37.277Z,20.60
2018-08-27T22:27:05.737Z,20.60
2018-08-27T22:29:34.005Z,20.60
2018-08-27T22:34:30.205Z,20.70
2018-08-27T22:36:58.453Z,20.40
2018-08-27T22:39:26.783Z,20.40
2018-08-27T22:41:55.639Z,20.50
2018-08-27T22:44:23.853Z,20.50
2018-08-27T22:49:20.141Z,20.50
2018-08-27T22:56:44.485Z,20.40
2018-08-27T22:59:12.758Z,20.40
2018-08-27T23:01:41.031Z,20.40
2018-08-27T23:04:14.712Z,20.50
2018-08-27T23:09:10.974Z,20.50
2018-08-27T23:11:39.417Z,20.30
2018-08-27T23:16:42.306Z,20.30
2018-08-27T23:24:07.125Z,20.30
2018-08-27T23:26:35.396Z,20.40
2018-08-27T23:33:59.705Z,20.20
2018-08-27T23:38:55.897Z,20.20
2018-08-27T23:41:24.146Z,20.00
2018-08-27T23:43:52.410Z,19.90
2018-08-27T23:46:20.683Z,19.90
2018-08-27T23:48:48.918Z,20.00
2018-08-27T23:51:17.185Z,19.90
2018-08-27T23:56:13.397Z,19.60
2018-08-27T23:58:41.706Z,19.80
